createdAt,value
2018-11-14T00:00:27.686Z,15.30
2018-11-14T00:02:58.055Z,10.80
2018-11-14T00:05:27.339Z,12.17
2018-11-14T00:07:56.667Z,13.30
2018-11-14T00:10:25.999Z,11.48
2018-11-14T00:12:55.326Z,11.50
2018-11-14T00:15:25.956Z,13.90
2018-11-14T00:17:55.880Z,8.43
2018-11-14T00:20:25.700Z,10.60
2018-11-14T00:22:55.052Z,9.48
2018-11-14T00:25:24.362Z,7.47
2018-11-14T00:27:53.742Z,8.90
2018-11-14T00:30:24.842Z,6.73
2018-11-14T00:32:54.578Z,7.80
2018-11-14T00:35:23.661Z,14.90
2018-11-14T00:37:52.979Z,6.30
2018-11-14T00:40:22.354Z,6.30
2018-11-14T00:42:51.912Z,10.50
2018-11-14T00:45:22.293Z,7.10
2018-11-14T00:47:51.691Z,11.23
2018-11-14T00:50:21.384Z,9.83
2018-11-14T00:52:50.943Z,12.03
2018-11-14T00:55:21.669Z,13.93
2018-11-14T00:57:52.052Z,11.63
2018-11-14T01:00:27.195Z,6.87
2018-11-14T01:02:56.509Z,8.53
2018-11-14T01:05:25.996Z,6.77
2018-11-14T01:07:55.334Z,7.30
2018-11-14T01:10:26.577Z,5.20
2018-11-14T01:12:55.721Z,8.03
2018-11-14T01:15:24.783Z,11.03
2018-11-14T01:17:53.883Z,9.60
2018-11-14T01:20:23.903Z,7.33
2018-11-14T01:22:53.003Z,7.93
2018-11-14T01:25:22.107Z,7.28
2018-11-14T01:27:51.463Z,7.07
2018-11-14T01:30:22.189Z,5.57
2018-11-14T01:32:51.920Z,8.90
2018-11-14T01:35:21.703Z,11.27
2018-11-14T01:37:51.263Z,8.90
2018-11-14T01:40:22.586Z,6.97
2018-11-14T01:42:54.207Z,6.17
2018-11-14T01:45:24.316Z,5.77
2018-11-14T01:47:53.803Z,7.40
2018-11-14T01:50:22.908Z,7.10
2018-11-14T01:52:52.811Z,8.53
2018-11-14T01:55:22.192Z,8.93
2018-11-14T01:57:51.751Z,4.60
2018-11-14T02:00:22.259Z,6.93
2018-11-14T02:02:51.749Z,8.78
2018-11-14T02:05:21.097Z,4.40
2018-11-14T02:07:51.245Z,11.27
2018-11-14T02:10:21.420Z,5.57
2018-11-14T02:12:51.015Z,8.83
2018-11-14T02:15:21.692Z,11.50
2018-11-14T02:17:51.184Z,8.47
2018-11-14T02:20:20.740Z,7.20
2018-11-14T02:22:50.292Z,8.60
2018-11-14T02:25:19.845Z,7.90
2018-11-14T02:27:49.408Z,11.48
2018-11-14T02:30:20.243Z,7.37
2018-11-14T02:32:49.345Z,9.03
2018-11-14T02:35:18.709Z,5.83
2018-11-14T02:37:48.526Z,5.57
2018-11-14T02:40:19.042Z,5.27
2018-11-14T02:42:48.359Z,8.37
2018-11-14T02:45:18.392Z,4.03
2018-11-14T02:47:47.696Z,5.30
2018-11-14T02:50:17.749Z,5.55
2018-11-14T02:52:47.406Z,12.43
2018-11-14T02:55:17.253Z,4.40
2018-11-14T02:57:46.876Z,8.37
2018-11-14T03:00:18.617Z,9.70
2018-11-14T03:02:53.656Z,5.83
2018-11-14T03:05:23.267Z,3.93
2018-11-14T03:07:52.592Z,5.20
2018-11-14T03:10:22.458Z,8.38
2018-11-14T03:12:52.901Z,5.93
2018-11-14T03:15:23.201Z,12.03
2018-11-14T03:17:52.752Z,3.87
2018-11-14T03:20:22.556Z,6.63
2018-11-14T03:22:52.552Z,4.00
2018-11-14T03:25:21.651Z,4.50
2018-11-14T03:27:50.995Z,7.90
2018-11-14T03:30:20.324Z,5.03
2018-11-14T03:32:49.750Z,6.25
2018-11-14T03:35:19.057Z,5.80
2018-11-14T03:37:48.359Z,4.73
2018-11-14T03:40:17.738Z,3.53
2018-11-14T03:42:47.558Z,7.90
2018-11-14T03:45:16.669Z,3.05
2018-11-14T03:47:45.757Z,4.40
2018-11-14T03:50:14.913Z,5.13
2018-11-14T03:52:44.233Z,2.43
2018-11-14T03:55:13.577Z,4.50
2018-11-14T03:57:42.900Z,5.95
2018-11-14T04:00:14.625Z,7.20
2018-11-14T04:02:45.578Z,3.30
2018-11-14T04:05:15.075Z,3.10
2018-11-14T04:07:44.393Z,5.67
2018-11-14T04:10:14.593Z,8.27
2018-11-14T04:12:44.184Z,4.70
2018-11-14T04:15:14.431Z,7.17
2018-11-14T04:17:43.965Z,3.50
2018-11-14T04:20:14.678Z,4.20
2018-11-14T04:22:44.283Z,2.90
2018-11-14T04:25:17.595Z,4.73
2018-11-14T04:27:47.826Z,4.20
2018-11-14T04:30:22.196Z,4.40
2018-11-14T04:32:52.103Z,3.83
2018-11-14T04:35:21.851Z,5.63
2018-11-14T04:37:51.219Z,4.50
2018-11-14T04:40:22.184Z,7.37
2018-11-14T04:42:52.078Z,6.10
2018-11-14T04:45:23.827Z,5.47
2018-11-14T04:47:53.563Z,6.27
2018-11-14T04:50:26.268Z,4.10
2018-11-14T04:52:56.033Z,4.30
2018-11-14T04:55:26.569Z,3.47
2018-11-14T04:57:55.884Z,4.23
2018-11-14T05:00:25.904Z,4.30
2018-11-14T05:02:55.020Z,4.93
2018-11-14T05:05:24.813Z,4.55
2018-11-14T05:07:54.133Z,2.60
2018-11-14T05:10:24.960Z,4.03
2018-11-14T05:12:54.312Z,5.17
2018-11-14T05:15:25.266Z,3.77
2018-11-14T05:17:55.204Z,3.50
2018-11-14T05:20:24.499Z,3.27
2018-11-14T05:22:53.924Z,3.07
2018-11-14T05:25:23.261Z,4.57
2018-11-14T05:27:52.823Z,3.73
2018-11-14T05:30:23.038Z,2.60
2018-11-14T05:32:52.960Z,3.03
2018-11-14T05:35:22.063Z,5.03
2018-11-14T05:37:51.395Z,6.83
2018-11-14T05:40:22.105Z,3.00
2018-11-14T05:42:52.016Z,3.60
2018-11-14T05:45:24.503Z,3.30
2018-11-14T05:47:53.668Z,2.13
2018-11-14T05:50:23.278Z,2.90
2018-11-14T05:52:52.606Z,6.33
2018-11-14T05:55:21.915Z,3.50
2018-11-14T05:57:51.262Z,2.45
2018-11-14T06:00:27.863Z,4.80
2018-11-14T06:03:00.122Z,4.30
2018-11-14T06:05:30.958Z,3.10
2018-11-14T06:08:00.439Z,3.23
2018-11-14T06:10:29.781Z,2.37
2018-11-14T06:12:59.327Z,3.83
2018-11-14T06:15:29.028Z,4.43
2018-11-14T06:17:59.288Z,6.20
2018-11-14T06:20:29.650Z,3.37
2018-11-14T06:22:59.323Z,2.23
2018-11-14T06:25:35.605Z,3.30
2018-11-14T06:28:06.304Z,3.95
2018-11-14T06:30:36.360Z,4.40
2018-11-14T06:33:06.579Z,3.20
2018-11-14T06:35:36.276Z,3.07
2018-11-14T06:38:05.599Z,2.90
2018-11-14T06:40:35.156Z,4.25
2018-11-14T06:43:04.480Z,4.50
2018-11-14T06:45:34.505Z,2.80
2018-11-14T06:48:04.705Z,3.87
2018-11-14T06:50:34.276Z,4.40
2018-11-14T06:53:04.976Z,6.97
2018-11-14T06:55:34.620Z,13.70
2018-11-14T06:58:03.922Z,4.03
2018-11-14T07:00:34.417Z,3.43
2018-11-14T07:03:04.650Z,2.50
2018-11-14T07:05:33.855Z,9.73
2018-11-14T07:08:03.573Z,9.67
2018-11-14T07:10:35.179Z,13.93
2018-11-14T07:13:09.217Z,10.93
2018-11-14T07:15:39.701Z,22.52
2018-11-14T07:18:10.539Z,13.20
2018-11-14T07:20:42.338Z,10.13
2018-11-14T07:23:11.448Z,11.47
2018-11-14T07:25:40.700Z,11.77
2018-11-14T07:28:09.889Z,8.53
2018-11-14T07:30:39.249Z,34.87
2018-11-14T07:33:09.775Z,19.07
2018-11-14T07:35:38.906Z,25.37
2018-11-14T07:38:40.044Z,20.20
2018-11-14T07:41:12.124Z,14.90
2018-11-14T07:43:41.759Z,19.90
2018-11-14T07:46:11.920Z,19.63
2018-11-14T07:48:41.519Z,32.27
2018-11-14T07:51:11.253Z,45.67
2018-11-14T07:53:40.591Z,55.70
2018-11-14T07:56:09.933Z,56.87
2018-11-14T07:58:39.246Z,45.27
2018-11-14T08:01:08.813Z,44.47
2018-11-14T08:03:38.133Z,38.33
2018-11-14T08:06:07.715Z,39.07
2018-11-14T08:08:37.303Z,41.45
2018-11-14T08:11:08.161Z,38.77
2018-11-14T08:13:38.996Z,37.93
2018-11-14T08:16:08.526Z,37.90
2018-11-14T08:18:37.866Z,44.33
2018-11-14T08:21:07.941Z,28.93
2018-11-14T08:23:38.119Z,30.63
2018-11-14T08:26:07.486Z,33.10
2018-11-14T08:28:36.565Z,34.20
2018-11-14T08:31:06.215Z,40.47
2018-11-14T08:33:35.537Z,26.40
2018-11-14T08:36:05.121Z,26.40
2018-11-14T08:38:34.450Z,28.00
2018-11-14T08:41:03.781Z,23.10
2018-11-14T08:43:33.344Z,27.33
2018-11-14T08:46:02.901Z,27.00
2018-11-14T08:48:32.209Z,23.65
2018-11-14T08:51:01.350Z,15.50
2018-11-14T08:53:30.679Z,16.33
2018-11-14T08:55:59.991Z,21.67
2018-11-14T08:58:29.345Z,17.00
2018-11-14T09:00:59.082Z,36.73
2018-11-14T09:03:28.386Z,36.27
2018-11-14T09:05:57.767Z,26.27
2018-11-14T09:08:27.076Z,29.93
2018-11-14T09:10:56.205Z,27.73
2018-11-14T09:13:25.784Z,26.20
2018-11-14T09:15:55.460Z,27.30
2018-11-14T09:18:24.580Z,40.63
2018-11-14T09:20:53.945Z,28.33
2018-11-14T09:23:23.507Z,11.77
2018-11-14T09:25:52.822Z,26.83
2018-11-14T09:28:22.171Z,20.13
2018-11-14T09:30:51.768Z,23.10
2018-11-14T09:33:21.109Z,19.97
2018-11-14T09:35:50.507Z,34.27
2018-11-14T09:38:19.839Z,19.70
2018-11-14T09:40:49.057Z,16.77
2018-11-14T09:43:18.166Z,22.17
2018-11-14T09:45:47.504Z,18.55
2018-11-14T09:48:16.928Z,27.53
2018-11-14T09:50:46.224Z,19.93
2018-11-14T09:53:15.686Z,19.10
2018-11-14T09:55:44.925Z,20.63
2018-11-14T09:58:14.125Z,16.10
2018-11-14T10:00:43.551Z,13.20
2018-11-14T10:03:15.331Z,17.30
2018-11-14T10:05:44.658Z,24.73
2018-11-14T10:08:14.312Z,20.83
2018-11-14T10:10:44.262Z,22.40
2018-11-14T10:13:14.033Z,12.60
2018-11-14T10:15:43.447Z,13.93
2018-11-14T10:18:12.738Z,21.43
2018-11-14T10:20:42.060Z,16.97
2018-11-14T10:23:11.172Z,14.73
2018-11-14T10:25:40.514Z,18.00
2018-11-14T10:28:09.871Z,17.50
2018-11-14T10:30:39.236Z,14.47
2018-11-14T10:33:08.954Z,18.03
2018-11-14T10:35:38.452Z,14.37
2018-11-14T10:38:07.800Z,22.47
2018-11-14T10:40:37.147Z,15.83
2018-11-14T10:43:06.535Z,16.97
2018-11-14T10:45:36.364Z,15.32
2018-11-14T10:48:06.073Z,15.23
2018-11-14T10:50:35.407Z,19.53
2018-11-14T10:53:05.292Z,19.20
2018-11-14T10:55:34.863Z,23.63
2018-11-14T10:58:04.722Z,16.40
2018-11-14T11:00:39.382Z,16.10
2018-11-14T11:03:16.984Z,18.17
2018-11-14T11:05:52.021Z,15.23
2018-11-14T11:08:24.836Z,13.70
2018-11-14T11:10:59.680Z,19.48
2018-11-14T11:13:34.231Z,15.57
2018-11-14T11:16:09.037Z,14.58
2018-11-14T11:18:38.597Z,17.32
2018-11-14T11:21:08.159Z,17.53
2018-11-14T11:23:37.801Z,16.07
2018-11-14T11:26:07.335Z,15.00
2018-11-14T11:28:36.440Z,14.33
2018-11-14T11:31:05.541Z,10.33
2018-11-14T11:33:34.902Z,15.78
2018-11-14T11:36:04.731Z,16.57
2018-11-14T11:38:33.834Z,13.60
2018-11-14T11:41:03.172Z,15.83
2018-11-14T11:43:32.729Z,12.07
2018-11-14T11:46:02.588Z,11.93
2018-11-14T11:48:31.678Z,7.90
2018-11-14T11:51:01.121Z,9.33
2018-11-14T11:53:30.485Z,12.93
2018-11-14T11:55:59.834Z,12.20
2018-11-14T11:58:29.165Z,8.97
2018-11-14T12:00:58.245Z,9.13
2018-11-14T12:03:27.608Z,12.77
2018-11-14T12:05:57.192Z,9.43
2018-11-14T12:08:26.697Z,8.20
2018-11-14T12:10:56.379Z,11.80
2018-11-14T12:13:25.992Z,5.97
2018-11-14T12:15:55.293Z,10.30
2018-11-14T12:18:24.611Z,6.70
2018-11-14T12:20:53.720Z,9.90
2018-11-14T12:23:22.830Z,8.10
2018-11-14T12:25:52.587Z,13.23
2018-11-14T12:28:21.687Z,4.57
2018-11-14T12:30:51.169Z,7.47
2018-11-14T12:33:20.345Z,11.03
2018-11-14T12:35:50.246Z,8.50
2018-11-14T12:38:20.365Z,5.43
2018-11-14T12:40:49.651Z,3.93
2018-11-14T12:43:19.000Z,4.73
2018-11-14T12:45:48.336Z,4.83
2018-11-14T12:48:17.434Z,5.80
2018-11-14T12:50:46.776Z,5.70
2018-11-14T12:53:16.107Z,6.40
2018-11-14T12:55:45.445Z,6.30
2018-11-14T12:58:14.748Z,5.93
2018-11-14T13:00:44.111Z,8.10
2018-11-14T13:03:13.667Z,9.33
2018-11-14T13:05:42.988Z,13.67
2018-11-14T13:08:12.104Z,8.37
2018-11-14T13:10:41.205Z,9.27
2018-11-14T13:13:10.536Z,7.27
2018-11-14T13:15:40.088Z,8.43
2018-11-14T13:18:09.404Z,6.90
2018-11-14T13:20:38.487Z,7.33
2018-11-14T13:23:08.276Z,6.57
2018-11-14T13:25:37.593Z,6.30
2018-11-14T13:28:06.956Z,9.43
2018-11-14T13:30:36.265Z,6.00
2018-11-14T13:33:05.921Z,9.43
2018-11-14T13:35:35.268Z,12.87
2018-11-14T13:38:05.181Z,7.67
2018-11-14T13:40:34.484Z,8.90
2018-11-14T13:43:03.618Z,7.22
2018-11-14T13:45:32.977Z,8.03
2018-11-14T13:48:02.068Z,7.57
2018-11-14T13:50:31.715Z,10.43
2018-11-14T13:53:00.730Z,7.40
2018-11-14T13:55:30.071Z,9.73
2018-11-14T13:57:59.611Z,11.97
2018-11-14T14:00:29.183Z,16.23
2018-11-14T14:02:58.484Z,8.50
2018-11-14T14:05:28.309Z,10.37
2018-11-14T14:07:57.667Z,5.20
2018-11-14T14:10:27.279Z,5.87
2018-11-14T14:12:56.619Z,5.47
2018-11-14T14:15:26.970Z,6.23
2018-11-14T14:17:56.067Z,13.37
2018-11-14T14:20:25.592Z,7.93
2018-11-14T14:22:54.707Z,9.20
2018-11-14T14:25:24.210Z,8.43
2018-11-14T14:27:53.308Z,11.70
2018-11-14T14:30:23.107Z,7.78
2018-11-14T14:32:52.429Z,9.78
2018-11-14T14:35:23.247Z,14.67
2018-11-14T14:37:52.380Z,25.50
2018-11-14T14:40:22.443Z,23.03
2018-11-14T14:42:51.595Z,18.93
2018-11-14T14:45:22.463Z,25.40
2018-11-14T14:47:51.783Z,35.53
2018-11-14T14:50:21.381Z,29.10
2018-11-14T14:52:50.686Z,33.33
2018-11-14T14:55:23.323Z,35.17
2018-11-14T14:57:52.464Z,32.10
2018-11-14T15:00:25.356Z,29.13
2018-11-14T15:02:54.671Z,21.05
2018-11-14T15:05:23.768Z,37.90
2018-11-14T15:07:52.898Z,29.17
2018-11-14T15:10:23.458Z,31.00
2018-11-14T15:12:53.683Z,30.37
2018-11-14T15:15:23.040Z,36.67
2018-11-14T15:17:52.816Z,25.17
2018-11-14T15:20:23.547Z,24.30
2018-11-14T15:22:52.989Z,32.03
2018-11-14T15:25:23.389Z,24.72
2018-11-14T15:27:53.301Z,21.17
2018-11-14T15:30:24.520Z,16.30
2018-11-14T15:32:53.647Z,31.43
2018-11-14T15:35:22.931Z,19.50
2018-11-14T15:37:52.136Z,17.07
2018-11-14T15:40:23.359Z,21.20
2018-11-14T15:42:53.009Z,21.43
2018-11-14T15:45:23.813Z,20.93
2018-11-14T15:47:53.183Z,22.30
2018-11-14T15:50:23.447Z,15.30
2018-11-14T15:52:54.151Z,18.55
2018-11-14T15:55:23.621Z,11.37
2018-11-14T15:57:53.014Z,17.85
2018-11-14T16:00:23.951Z,13.23
2018-11-14T16:02:53.740Z,18.50
2018-11-14T16:05:24.184Z,12.10
2018-11-14T16:07:54.354Z,14.87
2018-11-14T16:10:24.320Z,11.10
2018-11-14T16:12:53.676Z,9.83
2018-11-14T16:15:25.551Z,10.40
2018-11-14T16:17:54.908Z,16.13
2018-11-14T16:20:25.193Z,15.80
2018-11-14T16:22:54.742Z,12.00
2018-11-14T16:25:25.207Z,9.30
2018-11-14T16:27:56.036Z,14.45
2018-11-14T16:30:29.456Z,9.60
2018-11-14T16:33:00.485Z,6.92
2018-11-14T16:35:29.804Z,9.00
2018-11-14T16:37:58.912Z,11.20
2018-11-14T16:40:30.356Z,11.77
2018-11-14T16:43:01.060Z,9.77
2018-11-14T16:45:30.374Z,8.50
2018-11-14T16:47:59.771Z,12.77
2018-11-14T16:50:29.335Z,9.17
2018-11-14T16:52:58.650Z,11.53
2018-11-14T16:55:28.048Z,18.97
2018-11-14T16:57:57.919Z,8.87
2018-11-14T17:00:29.562Z,8.77
2018-11-14T17:02:59.182Z,11.10
2018-11-14T17:05:29.845Z,13.63
2018-11-14T17:07:59.158Z,13.53
2018-11-14T17:10:28.524Z,12.58
2018-11-14T17:12:59.638Z,10.77
2018-11-14T17:15:28.820Z,11.43
2018-11-14T17:17:57.934Z,7.53
2018-11-14T17:20:27.263Z,6.93
2018-11-14T17:22:56.764Z,13.40
2018-11-14T17:25:25.895Z,11.80
2018-11-14T17:27:55.276Z,11.40
2018-11-14T17:30:25.880Z,13.27
2018-11-14T17:32:55.503Z,6.93
2018-11-14T17:35:24.616Z,8.77
2018-11-14T17:37:53.991Z,12.30
2018-11-14T17:40:27.680Z,9.03
2018-11-14T17:42:57.074Z,9.77
2018-11-14T17:45:28.625Z,10.47
2018-11-14T17:47:58.901Z,8.40
2018-11-14T17:50:29.287Z,12.47
2018-11-14T17:52:59.469Z,7.93
2018-11-14T17:55:29.114Z,8.30
2018-11-14T17:57:58.630Z,7.80
2018-11-14T18:00:28.971Z,10.23
2018-11-14T18:02:58.408Z,10.87
2018-11-14T18:05:29.495Z,5.10
2018-11-14T18:07:58.793Z,10.80
2018-11-14T18:10:29.063Z,6.27
2018-11-14T18:12:59.126Z,7.15
2018-11-14T18:15:28.476Z,6.50
2018-11-14T18:17:59.200Z,8.00
2018-11-14T18:20:29.580Z,9.10
2018-11-14T18:22:59.192Z,7.90
2018-11-14T18:25:28.767Z,10.60
2018-11-14T18:27:59.050Z,9.27
2018-11-14T18:30:29.799Z,7.57
2018-11-14T18:33:00.203Z,8.83
2018-11-14T18:35:29.669Z,12.90
2018-11-14T18:37:59.727Z,11.03
2018-11-14T18:40:31.172Z,6.50
2018-11-14T18:43:00.274Z,9.77
2018-11-14T18:45:31.249Z,10.00
2018-11-14T18:48:01.553Z,9.55
2018-11-14T18:50:31.581Z,6.40
2018-11-14T18:53:00.670Z,8.90
2018-11-14T18:55:31.491Z,7.97
2018-11-14T18:58:01.845Z,10.78
2018-11-14T19:00:32.544Z,9.67
2018-11-14T19:03:01.848Z,7.10
2018-11-14T19:05:31.201Z,7.87
2018-11-14T19:08:00.722Z,5.90
2018-11-14T19:10:31.715Z,10.23
2018-11-14T19:13:00.811Z,11.50
2018-11-14T19:15:34.797Z,10.95
2018-11-14T19:18:04.422Z,10.60
2018-11-14T19:20:34.917Z,8.97
2018-11-14T19:23:06.068Z,4.97
2018-11-14T19:25:36.727Z,7.10
2018-11-14T19:28:05.845Z,8.97
2018-11-14T19:30:36.653Z,13.97
2018-11-14T19:33:05.916Z,9.97
2018-11-14T19:35:35.034Z,9.63
2018-11-14T19:38:04.608Z,7.50
2018-11-14T19:40:35.279Z,5.55
2018-11-14T19:43:05.683Z,10.43
2018-11-14T19:45:36.527Z,9.50
2018-11-14T19:48:05.939Z,8.67
2018-11-14T19:50:35.404Z,12.40
2018-11-14T19:53:05.240Z,9.67
2018-11-14T19:55:35.462Z,4.90
2018-11-14T19:58:05.292Z,8.83
2018-11-14T20:00:37.672Z,10.17
2018-11-14T20:03:06.949Z,9.40
2018-11-14T20:05:36.290Z,11.53
2018-11-14T20:08:06.316Z,8.97
2018-11-14T20:10:35.724Z,7.93
2018-11-14T20:13:05.079Z,4.67
2018-11-14T20:15:36.112Z,6.63
2018-11-14T20:18:05.853Z,7.57
2018-11-14T20:20:36.590Z,6.93
2018-11-14T20:23:05.927Z,7.30
2018-11-14T20:25:35.508Z,4.27
2018-11-14T20:28:04.851Z,6.90
2018-11-14T20:30:35.494Z,7.17
2018-11-14T20:33:06.731Z,8.20
2018-11-14T20:35:36.076Z,6.83
2018-11-14T20:38:05.391Z,6.00
2018-11-14T20:40:37.847Z,10.20
2018-11-14T20:43:07.662Z,5.30
2018-11-14T20:45:37.191Z,8.18
2018-11-14T20:48:06.570Z,10.57
2018-11-14T20:50:36.121Z,9.08
2018-11-14T20:53:05.512Z,13.37
2018-11-14T20:55:35.319Z,9.67
2018-11-14T20:58:05.220Z,16.40
2018-11-14T21:00:36.147Z,13.83
2018-11-14T21:03:06.712Z,14.93
2018-11-14T21:05:36.062Z,16.10
2018-11-14T21:08:06.139Z,20.77
2018-11-14T21:10:36.114Z,28.33
2018-11-14T21:13:05.490Z,25.88
2018-11-14T21:15:36.367Z,24.02
2018-11-14T21:18:06.106Z,29.20
2018-11-14T21:20:35.677Z,31.03
2018-11-14T21:23:05.128Z,28.90
2018-11-14T21:25:34.443Z,25.80
2018-11-14T21:28:03.788Z,19.87
2018-11-14T21:30:32.921Z,21.57
2018-11-14T21:33:02.041Z,23.80
2018-11-14T21:35:32.913Z,22.55
2018-11-14T21:38:03.634Z,28.00
2018-11-14T21:40:32.943Z,25.87
2018-11-14T21:43:02.055Z,21.27
2018-11-14T21:45:31.822Z,22.90
2018-11-14T21:48:06.836Z,24.60
2018-11-14T21:50:36.155Z,22.17
2018-11-14T21:53:05.303Z,25.57
2018-11-14T21:55:34.614Z,19.52
2018-11-14T21:58:04.263Z,19.48
2018-11-14T22:00:35.132Z,26.67
2018-11-14T22:03:05.543Z,22.77
2018-11-14T22:05:35.913Z,19.33
2018-11-14T22:08:05.409Z,24.30
2018-11-14T22:10:35.459Z,21.60
2018-11-14T22:13:04.863Z,19.43
2018-11-14T22:15:34.190Z,15.38
2018-11-14T22:18:03.612Z,23.55
2018-11-14T22:20:33.146Z,23.27
2018-11-14T22:23:02.511Z,26.53
2018-11-14T22:25:31.852Z,19.00
2018-11-14T22:28:01.496Z,16.15
2018-11-14T22:30:33.382Z,17.87
2018-11-14T22:33:02.708Z,18.90
2018-11-14T22:35:32.893Z,18.50
2018-11-14T22:38:02.443Z,22.50
2018-11-14T22:40:32.719Z,20.07
2018-11-14T22:43:02.304Z,17.90
2018-11-14T22:45:32.674Z,16.83
2018-11-14T22:48:01.806Z,23.70
2018-11-14T22:50:31.180Z,17.10
2018-11-14T22:53:00.759Z,17.80
2018-11-14T22:55:30.096Z,18.30
2018-11-14T22:57:59.229Z,16.60
2018-11-14T23:00:32.792Z,21.30
2018-11-14T23:03:02.999Z,16.03
2018-11-14T23:05:32.090Z,14.73
2018-11-14T23:08:01.794Z,15.88
2018-11-14T23:10:31.360Z,11.95
2018-11-14T23:13:01.617Z,11.70
2018-11-14T23:15:30.798Z,15.13
2018-11-14T23:17:59.836Z,14.63
2018-11-14T23:20:29.187Z,12.30
2018-11-14T23:22:58.589Z,17.73
2018-11-14T23:25:27.980Z,17.50
2018-11-14T23:27:57.336Z,17.37
2018-11-14T23:30:27.640Z,18.27
2018-11-14T23:32:57.860Z,17.10
2018-11-14T23:35:29.632Z,18.67
2018-11-14T23:38:00.458Z,13.15
2018-11-14T23:40:30.095Z,16.40
2018-11-14T23:42:59.673Z,16.70
2018-11-14T23:45:29.737Z,19.50
2018-11-14T23:47:59.318Z,16.70
2018-11-14T23:50:30.348Z,15.93
2018-11-14T23:53:00.868Z,12.13
2018-11-14T23:55:31.109Z,18.70
2018-11-14T23:58:00.825Z,16.30
